createdAt,value
2023-04-25T00:01:53.569Z,91.11
2023-04-25T00:04:23.090Z,88.68
2023-04-25T00:06:50.833Z,88.77
2023-04-25T00:09:18.305Z,88.10
2023-04-25T00:11:45.834Z,87.89
2023-04-25T00:14:13.379Z,89.38
2023-04-25T00:16:44.906Z,92.51
2023-04-25T00:19:12.625Z,98.01
2023-04-25T00:21:41.514Z,100.00
2023-04-25T00:24:09.406Z,100.00
2023-04-25T00:26:37.837Z,100.00
2023-04-25T00:29:05.509Z,99.29
2023-04-25T00:31:33.073Z,99.67
2023-04-25T00:34:02.139Z,100.00
2023-04-25T00:36:29.682Z,100.00
2023-04-25T00:38:57.239Z,100.00
2023-04-25T00:41:26.101Z,100.00
2023-04-25T00:43:54.118Z,100.00
2023-04-25T00:46:21.728Z,100.00
2023-04-25T00:48:49.328Z,100.00
2023-04-25T00:51:22.067Z,100.00
2023-04-25T00:53:51.837Z,100.00
2023-04-25T00:56:19.793Z,100.00
2023-04-25T00:58:47.500Z,100.00
2023-04-25T01:01:15.403Z,100.00
2023-04-25T01:03:43.882Z,100.00
2023-04-25T01:06:12.606Z,100.00
2023-04-25T01:08:41.502Z,100.00
2023-04-25T01:11:08.986Z,100.00
2023-04-25T01:13:37.394Z,100.00
2023-04-25T01:16:05.456Z,100.00
2023-04-25T01:18:33.038Z,100.00
2023-04-25T01:21:08.726Z,100.00
2023-04-25T01:23:36.368Z,100.00
2023-04-25T01:26:04.386Z,100.00
2023-04-25T01:28:32.215Z,100.00
2023-04-25T01:30:59.778Z,100.00
2023-04-25T01:33:27.435Z,100.00
2023-04-25T01:35:55.613Z,100.00
2023-04-25T01:38:24.456Z,100.00
2023-04-25T01:40:52.893Z,100.00
2023-04-25T01:43:20.605Z,100.00
2023-04-25T01:45:48.535Z,100.00
2023-04-25T01:48:16.276Z,100.00
2023-04-25T01:50:43.947Z,100.00
2023-04-25T01:53:12.925Z,100.00
2023-04-25T01:55:41.792Z,100.00
2023-04-25T01:58:10.786Z,100.00
2023-04-25T02:00:39.745Z,100.00
2023-04-25T02:03:08.014Z,100.00
2023-04-25T02:05:39.493Z,100.00
2023-04-25T02:08:08.847Z,100.00
2023-04-25T02:10:37.471Z,100.00
2023-04-25T02:13:06.398Z,100.00
2023-04-25T02:15:34.188Z,100.00
2023-04-25T02:18:02.029Z,100.00
2023-04-25T02:20:32.395Z,100.00
2023-04-25T02:22:59.937Z,100.00
2023-04-25T02:25:27.878Z,100.00
2023-04-25T02:27:55.648Z,100.00
2023-04-25T02:30:24.467Z,100.00
2023-04-25T02:32:52.105Z,100.00
2023-04-25T02:35:20.015Z,100.00
2023-04-25T02:37:47.490Z,100.00
2023-04-25T02:40:15.015Z,100.00
2023-04-25T02:42:42.531Z,100.00
2023-04-25T02:45:11.155Z,100.00
2023-04-25T02:47:40.088Z,100.00
2023-04-25T02:50:08.702Z,100.00
2023-04-25T02:52:36.315Z,100.00
2023-04-25T02:55:03.840Z,100.00
2023-04-25T02:57:31.329Z,100.00
2023-04-25T02:59:58.790Z,100.00
2023-04-25T03:02:26.513Z,100.00
2023-04-25T03:04:55.385Z,97.77
2023-04-25T03:07:22.830Z,97.32
2023-04-25T03:09:50.458Z,98.81
2023-04-25T03:12:17.929Z,100.00
2023-04-25T03:14:45.379Z,99.89
2023-04-25T03:17:12.838Z,100.00
2023-04-25T03:19:40.316Z,100.00
2023-04-25T03:22:09.144Z,100.00
2023-04-25T03:24:38.196Z,100.00
2023-04-25T03:27:05.682Z,100.00
2023-04-25T03:29:33.416Z,100.00
2023-04-25T03:32:00.951Z,100.00
2023-04-25T03:34:28.987Z,100.00
2023-04-25T03:36:56.521Z,100.00
2023-04-25T03:39:25.577Z,100.00
2023-04-25T03:41:53.093Z,100.00
2023-04-25T03:44:20.572Z,100.00
2023-04-25T03:46:48.075Z,100.00
2023-04-25T03:49:17.867Z,100.00
2023-04-25T03:51:46.777Z,100.00
2023-04-25T03:54:14.300Z,100.00
2023-04-25T03:56:43.085Z,100.00
2023-04-25T03:59:10.605Z,100.00
2023-04-25T04:01:38.153Z,100.00
2023-04-25T04:04:06.055Z,100.00
2023-04-25T04:06:34.108Z,100.00
2023-04-25T04:09:01.613Z,100.00
2023-04-25T04:11:29.067Z,100.00
2023-04-25T04:13:57.889Z,100.00
2023-04-25T04:16:25.462Z,100.00
2023-04-25T04:18:52.960Z,100.00
2023-04-25T04:21:20.420Z,100.00
2023-04-25T04:23:49.157Z,100.00
2023-04-25T04:26:17.349Z,100.00
2023-04-25T04:28:45.612Z,100.00
2023-04-25T04:31:16.492Z,100.00
2023-04-25T04:33:44.053Z,100.00
2023-04-25T04:36:11.651Z,100.00
2023-04-25T04:38:41.403Z,100.00
2023-04-25T04:41:09.856Z,100.00
2023-04-25T04:43:37.634Z,100.00
2023-04-25T04:46:05.470Z,100.00
2023-04-25T04:48:35.109Z,100.00
2023-04-25T04:51:02.997Z,100.00
2023-04-25T04:53:30.476Z,100.00
2023-04-25T04:55:57.925Z,100.00
2023-04-25T04:58:25.484Z,100.00
2023-04-25T05:00:52.995Z,100.00
2023-04-25T05:03:20.738Z,100.00
2023-04-25T05:05:49.720Z,100.00
2023-04-25T05:08:17.193Z,100.00
2023-04-25T05:10:44.672Z,100.00
2023-04-25T05:13:12.208Z,100.00
2023-04-25T05:15:39.705Z,100.00
2023-04-25T05:18:07.274Z,100.00
2023-04-25T05:20:34.804Z,100.00
2023-04-25T05:23:03.594Z,91.30
2023-04-25T05:25:31.184Z,81.13
2023-04-25T05:27:59.268Z,73.97
2023-04-25T05:30:26.728Z,69.52
2023-04-25T05:32:54.585Z,66.37
2023-04-25T05:35:22.170Z,67.74
2023-04-25T05:37:49.678Z,68.64
2023-04-25T05:40:18.515Z,67.88
2023-04-25T05:42:46.124Z,65.11
2023-04-25T05:45:13.938Z,65.96
2023-04-25T05:47:41.644Z,67.10
2023-04-25T05:50:10.564Z,65.61
2023-04-25T05:52:38.008Z,66.83
2023-04-25T05:55:06.423Z,69.03
2023-04-25T05:57:35.314Z,68.02
2023-04-25T06:00:04.174Z,70.96
2023-04-25T06:02:31.947Z,75.37
2023-04-25T06:04:59.693Z,77.64
2023-04-25T06:07:27.335Z,74.99
2023-04-25T06:09:54.813Z,82.41
2023-04-25T06:12:22.258Z,79.79
2023-04-25T06:14:51.072Z,78.23
2023-04-25T06:17:18.627Z,73.28
2023-04-25T06:19:46.145Z,73.90
2023-04-25T06:22:13.597Z,83.05
2023-04-25T06:24:41.043Z,87.92
2023-04-25T06:27:08.513Z,95.81
2023-04-25T06:29:36.007Z,97.95
2023-04-25T06:32:05.059Z,94.40
2023-04-25T06:34:32.711Z,92.20
2023-04-25T06:37:00.176Z,87.03
2023-04-25T06:39:27.631Z,77.20
2023-04-25T06:41:55.503Z,81.51
2023-04-25T06:44:24.090Z,84.72
2023-04-25T06:46:51.777Z,94.92
2023-04-25T06:49:20.692Z,94.21
2023-04-25T06:51:48.158Z,86.42
2023-04-25T06:54:15.805Z,78.48
2023-04-25T06:56:43.287Z,84.71
2023-04-25T06:59:10.858Z,89.05
2023-04-25T07:01:38.338Z,96.08
2023-04-25T07:04:06.196Z,95.45
2023-04-25T07:06:35.212Z,99.49
2023-04-25T07:09:03.476Z,85.22
2023-04-25T07:11:30.910Z,79.07
2023-04-25T07:13:58.357Z,80.21
2023-04-25T07:16:25.993Z,75.18
2023-04-25T07:18:53.468Z,67.52
2023-04-25T07:21:20.966Z,62.89
2023-04-25T07:23:49.768Z,64.61
2023-04-25T07:26:17.235Z,60.42
2023-04-25T07:28:44.818Z,62.23
2023-04-25T07:31:12.366Z,62.63
2023-04-25T07:33:39.805Z,61.47
2023-04-25T07:36:08.198Z,59.66
2023-04-25T07:38:35.684Z,60.22
2023-04-25T07:41:04.586Z,64.53
2023-04-25T07:43:32.072Z,67.57
2023-04-25T07:45:59.688Z,66.75
2023-04-25T07:48:27.213Z,70.04
2023-04-25T07:50:54.692Z,70.62
2023-04-25T07:53:22.268Z,67.60
2023-04-25T07:55:49.751Z,69.82
2023-04-25T07:58:22.155Z,77.00
2023-04-25T08:00:50.834Z,76.48
2023-04-25T08:03:18.518Z,62.60
2023-04-25T08:05:46.906Z,59.66
2023-04-25T08:08:14.687Z,70.37
2023-04-25T08:10:43.069Z,73.09
2023-04-25T08:13:10.560Z,66.96
2023-04-25T08:15:39.466Z,66.87
2023-04-25T08:18:07.055Z,59.03
2023-04-25T08:20:34.565Z,54.26
2023-04-25T08:23:02.741Z,55.91
2023-04-25T08:25:30.258Z,58.92
2023-04-25T08:27:58.152Z,63.65
2023-04-25T08:30:25.682Z,65.48
2023-04-25T08:32:54.729Z,65.97
2023-04-25T08:35:22.445Z,72.31
2023-04-25T08:37:50.802Z,75.04
2023-04-25T08:40:18.323Z,66.12
2023-04-25T08:42:47.602Z,71.73
2023-04-25T08:45:15.175Z,75.44
2023-04-25T08:47:43.570Z,79.83
2023-04-25T08:50:12.521Z,95.15
2023-04-25T08:52:45.923Z,100.00
2023-04-25T08:55:14.356Z,100.00
2023-04-25T08:57:44.150Z,100.00
2023-04-25T09:00:12.836Z,100.00
2023-04-25T09:02:41.368Z,100.00
2023-04-25T09:05:14.070Z,99.30
2023-04-25T09:07:45.003Z,81.97
2023-04-25T09:10:12.484Z,70.30
2023-04-25T09:12:39.956Z,67.32
2023-04-25T09:15:10.132Z,75.60
2023-04-25T09:17:41.214Z,97.40
2023-04-25T09:20:10.742Z,100.00
2023-04-25T09:22:39.252Z,100.00
2023-04-25T09:25:12.899Z,100.00
2023-04-25T09:27:51.384Z,100.00
2023-04-25T09:30:19.456Z,100.00
2023-04-25T09:32:47.227Z,100.00
2023-04-25T09:35:26.552Z,100.00
2023-04-25T09:37:54.042Z,94.77
2023-04-25T09:40:23.200Z,93.90
2023-04-25T09:42:51.406Z,86.84
2023-04-25T09:45:18.970Z,82.53
2023-04-25T09:47:47.082Z,77.07
2023-04-25T09:50:20.096Z,72.27
2023-04-25T09:52:47.750Z,66.69
2023-04-25T09:55:15.771Z,71.82
2023-04-25T09:57:47.339Z,85.76
2023-04-25T10:00:16.025Z,100.00
2023-04-25T10:02:48.333Z,100.00
2023-04-25T10:05:16.810Z,100.00
2023-04-25T10:07:44.563Z,100.00
2023-04-25T10:10:15.080Z,100.00
2023-04-25T10:12:45.092Z,99.09
2023-04-25T10:15:14.168Z,95.08
2023-04-25T10:17:42.126Z,94.54
2023-04-25T10:20:11.806Z,96.81
2023-04-25T10:22:43.350Z,98.95
2023-04-25T10:25:12.102Z,81.34
2023-04-25T10:27:41.100Z,69.30
2023-04-25T10:30:13.572Z,62.75
2023-04-25T10:32:41.074Z,59.15
2023-04-25T10:35:17.352Z,59.45
2023-04-25T10:38:06.803Z,58.18
2023-04-25T10:40:34.457Z,59.24
2023-04-25T10:43:37.072Z,64.73
2023-04-25T10:46:15.528Z,74.51
2023-04-25T10:48:48.299Z,80.00
2023-04-25T10:51:19.482Z,76.26
2023-04-25T10:53:47.142Z,74.00
2023-04-25T10:56:19.425Z,69.01
2023-04-25T10:58:48.232Z,61.14
2023-04-25T11:01:23.333Z,65.88
2023-04-25T11:06:55.894Z,58.39
2023-04-25T11:09:29.029Z,59.74
2023-04-25T11:11:57.309Z,65.10
2023-04-25T11:14:24.874Z,66.00
2023-04-25T11:14:37.708Z,59.72
2023-04-25T11:16:58.070Z,67.82
2023-04-25T11:19:27.988Z,62.51
2023-04-25T11:21:57.620Z,60.13
2023-04-25T11:24:27.861Z,63.63
2023-04-25T11:26:55.474Z,62.53
2023-04-25T11:29:24.260Z,60.13
2023-04-25T11:31:52.527Z,64.22
2023-04-25T11:34:21.484Z,59.20
2023-04-25T11:36:48.982Z,58.23
2023-04-25T11:39:16.853Z,58.04
2023-04-25T11:41:45.887Z,56.78
2023-04-25T11:44:13.535Z,59.57
2023-04-25T11:46:41.137Z,61.77
2023-04-25T11:49:08.615Z,60.33
2023-04-25T11:51:41.774Z,58.00
2023-04-25T11:54:09.655Z,56.92
2023-04-25T11:56:37.142Z,59.48
2023-04-25T11:59:07.283Z,60.00
2023-04-25T12:01:37.589Z,58.08
2023-04-25T12:04:15.732Z,58.54
2023-04-25T12:06:48.405Z,59.52
2023-04-25T12:09:18.843Z,59.36
2023-04-25T12:11:47.292Z,60.43
2023-04-25T12:14:23.745Z,60.22
2023-04-25T12:16:52.200Z,61.11
2023-04-25T12:19:20.930Z,57.76
2023-04-25T12:21:58.080Z,59.59
2023-04-25T12:24:29.096Z,59.10
2023-04-25T12:27:01.692Z,59.97
2023-04-25T12:29:34.776Z,58.48
2023-04-25T12:32:09.918Z,55.27
2023-04-25T12:34:37.555Z,53.46
2023-04-25T12:37:06.488Z,55.69
2023-04-25T12:39:33.943Z,54.99
2023-04-25T12:42:01.947Z,57.62
2023-04-25T12:44:29.452Z,60.01
2023-04-25T12:46:57.231Z,61.08
2023-04-25T12:49:24.771Z,62.95
2023-04-25T12:51:52.677Z,63.48
2023-04-25T12:54:21.631Z,64.36
2023-04-25T12:56:49.257Z,64.61
2023-04-25T12:59:16.703Z,65.33
2023-04-25T13:01:45.282Z,65.02
2023-04-25T13:04:12.901Z,66.61
2023-04-25T13:06:40.544Z,68.92
2023-04-25T13:09:08.615Z,67.38
2023-04-25T13:11:37.465Z,63.89
2023-04-25T13:14:05.042Z,63.44
2023-04-25T13:16:32.525Z,64.98
2023-04-25T13:19:00.200Z,67.38
2023-04-25T13:21:27.941Z,72.49
2023-04-25T13:23:55.675Z,77.03
2023-04-25T13:26:23.258Z,72.03
2023-04-25T13:28:52.056Z,74.94
2023-04-25T13:31:19.555Z,75.56
2023-04-25T13:33:47.006Z,74.28
2023-04-25T13:36:14.492Z,66.79
2023-04-25T13:38:44.634Z,68.02
2023-04-25T13:41:16.634Z,68.04
2023-04-25T13:43:44.245Z,61.41
2023-04-25T13:46:30.115Z,64.06
2023-04-25T13:49:11.512Z,62.11
2023-04-25T13:51:40.386Z,60.70
2023-04-25T13:54:08.492Z,61.86
2023-04-25T13:56:36.254Z,60.50
2023-04-25T13:59:03.945Z,56.76
2023-04-25T14:01:35.305Z,53.62
2023-04-25T14:04:04.726Z,50.13
2023-04-25T14:06:33.246Z,49.17
2023-04-25T14:09:02.024Z,54.00
2023-04-25T14:11:29.515Z,56.16
2023-04-25T14:13:56.949Z,57.50
2023-04-25T14:16:24.808Z,58.94
2023-04-25T14:18:55.297Z,59.83
2023-04-25T14:21:22.796Z,59.94
2023-04-25T14:23:50.710Z,59.41
2023-04-25T14:26:18.302Z,58.02
2023-04-25T14:28:45.757Z,57.60
2023-04-25T14:31:13.341Z,57.84
2023-04-25T14:33:43.667Z,57.14
2023-04-25T14:36:12.576Z,56.93
2023-04-25T14:38:40.186Z,57.76
2023-04-25T14:41:07.694Z,57.31
2023-04-25T14:43:35.179Z,58.64
2023-04-25T14:46:03.071Z,58.55
2023-04-25T14:48:31.040Z,58.23
2023-04-25T14:50:58.711Z,58.00
2023-04-25T14:53:28.075Z,58.74
2023-04-25T14:55:55.610Z,56.25
2023-04-25T14:58:23.736Z,57.71
2023-04-25T15:00:51.554Z,58.04
2023-04-25T15:03:19.701Z,57.19
2023-04-25T15:05:47.388Z,55.41
2023-04-25T15:08:14.840Z,57.57
2023-04-25T15:10:43.681Z,54.35
2023-04-25T15:13:11.487Z,55.93
2023-04-25T15:15:38.968Z,57.46
2023-04-25T15:18:06.721Z,58.39
2023-04-25T15:20:34.291Z,55.52
2023-04-25T15:23:04.252Z,55.77
2023-04-25T15:25:31.782Z,56.72
2023-04-25T15:28:00.960Z,58.07
2023-04-25T15:30:28.543Z,60.34
2023-04-25T15:32:56.304Z,59.88
2023-04-25T15:35:23.811Z,60.51
2023-04-25T15:37:51.452Z,60.96
2023-04-25T15:40:19.218Z,60.79
2023-04-25T15:42:48.634Z,61.80
2023-04-25T15:45:17.825Z,60.79
2023-04-25T15:47:46.284Z,60.97
2023-04-25T15:50:15.789Z,61.19
2023-04-25T15:52:43.704Z,61.85
2023-04-25T15:55:12.854Z,61.77
2023-04-25T15:57:41.908Z,62.49
2023-04-25T16:00:12.988Z,61.08
2023-04-25T16:02:42.950Z,61.62
2023-04-25T16:05:12.776Z,62.66
2023-04-25T16:07:41.665Z,63.17
2023-04-25T16:10:11.029Z,62.39
2023-04-25T16:12:38.825Z,63.58
2023-04-25T16:15:07.146Z,64.43
2023-04-25T16:17:35.170Z,63.83
2023-04-25T16:20:09.633Z,62.39
2023-04-25T16:22:37.197Z,63.88
2023-04-25T16:25:05.629Z,65.05
2023-04-25T16:27:34.478Z,64.93
2023-04-25T16:30:02.074Z,64.42
2023-04-25T16:32:29.571Z,64.32
2023-04-25T16:34:58.838Z,64.89
2023-04-25T16:37:28.030Z,66.14
2023-04-25T16:39:55.511Z,65.62
2023-04-25T16:42:22.979Z,66.18
2023-04-25T16:44:50.453Z,67.11
2023-04-25T16:47:20.174Z,66.36
2023-04-25T16:49:48.111Z,68.09
2023-04-25T16:52:16.070Z,67.90
2023-04-25T16:54:46.014Z,66.87
2023-04-25T16:57:13.732Z,66.59
2023-04-25T16:59:41.374Z,65.24
2023-04-25T17:02:13.310Z,66.76
2023-04-25T17:04:41.006Z,68.59
2023-04-25T17:07:09.164Z,67.65
2023-04-25T17:09:36.712Z,68.14
2023-04-25T17:12:06.249Z,69.51
2023-04-25T17:14:35.796Z,67.80
2023-04-25T17:17:03.625Z,68.48
2023-04-25T17:19:31.348Z,67.45
2023-04-25T17:21:58.882Z,66.58
2023-04-25T17:24:26.361Z,65.59
2023-04-25T17:26:54.299Z,67.57
2023-04-25T17:29:23.733Z,69.20
2023-04-25T17:31:51.319Z,71.30
2023-04-25T17:34:18.774Z,73.31
2023-04-25T17:36:46.361Z,74.39
2023-04-25T17:39:17.057Z,71.79
2023-04-25T17:41:44.564Z,72.75
2023-04-25T17:44:12.057Z,72.05
2023-04-25T17:46:41.413Z,71.04
2023-04-25T17:49:09.065Z,72.42
2023-04-25T17:51:36.562Z,73.18
2023-04-25T17:54:04.114Z,74.36
2023-04-25T17:56:31.789Z,74.81
2023-04-25T17:58:59.451Z,74.00
2023-04-25T18:01:26.980Z,74.43
2023-04-25T18:03:56.374Z,75.56
2023-04-25T18:06:24.050Z,76.38
2023-04-25T18:08:52.639Z,76.13
2023-04-25T18:11:20.946Z,74.43
2023-04-25T18:13:48.413Z,76.52
2023-04-25T18:16:16.211Z,76.84
2023-04-25T18:18:46.735Z,76.14
2023-04-25T18:21:15.605Z,75.62
2023-04-25T18:23:43.100Z,78.98
2023-04-25T18:26:10.552Z,80.48
2023-04-25T18:28:37.998Z,81.19
2023-04-25T18:31:05.943Z,82.00
2023-04-25T18:33:33.442Z,82.89
2023-04-25T18:36:00.900Z,84.45
2023-04-25T18:41:10.759Z,86.69
2023-04-25T18:43:47.581Z,86.62
2023-04-25T18:46:15.111Z,86.65
2023-04-25T18:48:42.996Z,84.96
2023-04-25T18:51:10.516Z,85.44
2023-04-25T18:53:39.376Z,86.51
2023-04-25T18:56:07.403Z,85.07
2023-04-25T18:58:35.299Z,86.09
2023-04-25T19:01:03.717Z,85.86
2023-04-25T19:03:31.852Z,87.05
2023-04-25T19:05:59.617Z,85.54
2023-04-25T19:08:27.513Z,84.87
2023-04-25T19:10:56.732Z,81.96
2023-04-25T19:13:24.432Z,82.31
2023-04-25T19:15:51.932Z,84.94
2023-04-25T19:18:19.499Z,84.51
2023-04-25T19:20:47.176Z,85.10
2023-04-25T19:23:14.644Z,82.23
2023-04-25T19:25:42.605Z,81.43
2023-04-25T19:28:11.783Z,80.84
2023-04-25T19:30:39.658Z,83.42
2023-04-25T19:33:07.245Z,82.24
2023-04-25T19:35:34.726Z,76.46
2023-04-25T19:38:02.293Z,71.14
2023-04-25T19:40:29.865Z,69.46
2023-04-25T19:42:57.345Z,70.32
2023-04-25T19:45:26.394Z,71.46
2023-04-25T19:47:54.396Z,71.49
2023-04-25T19:50:22.149Z,70.25
2023-04-25T19:52:49.609Z,70.91
2023-04-25T19:55:18.058Z,72.76
2023-04-25T19:57:45.524Z,75.88
2023-04-25T20:00:16.951Z,83.94
2023-04-25T20:02:47.856Z,86.12
2023-04-25T20:05:17.875Z,86.02
2023-04-25T20:07:45.423Z,82.50
2023-04-25T20:10:14.010Z,81.61
2023-04-25T20:12:41.663Z,83.27
2023-04-25T20:15:09.883Z,82.22
2023-04-25T20:17:37.407Z,79.51
2023-04-25T20:20:07.427Z,80.96
2023-04-25T20:22:36.760Z,84.65
2023-04-25T20:25:05.346Z,85.69
2023-04-25T20:27:33.069Z,87.16
2023-04-25T20:30:04.037Z,88.41
2023-04-25T20:32:32.919Z,88.34
2023-04-25T20:35:01.022Z,83.05
2023-04-25T20:37:31.407Z,82.34
2023-04-25T20:39:59.508Z,83.13
2023-04-25T20:42:27.273Z,85.39
2023-04-25T20:44:54.933Z,83.81
2023-04-25T20:47:22.789Z,82.75
2023-04-25T20:49:50.311Z,84.41
2023-04-25T20:52:18.703Z,89.58
2023-04-25T20:54:50.229Z,94.88
2023-04-25T20:57:18.177Z,100.00
2023-04-25T20:59:45.831Z,100.00
2023-04-25T21:02:14.701Z,100.00
2023-04-25T21:04:44.029Z,100.00
2023-04-25T21:07:12.636Z,100.00
2023-04-25T21:09:40.556Z,100.00
2023-04-25T21:12:09.668Z,100.00
2023-04-25T21:14:37.154Z,100.00
2023-04-25T21:17:05.055Z,100.00
2023-04-25T21:19:33.071Z,100.00
2023-04-25T21:22:02.163Z,100.00
2023-04-25T21:24:31.118Z,100.00
2023-04-25T21:26:58.581Z,100.00
2023-04-25T21:29:27.436Z,100.00
2023-04-25T21:31:56.501Z,100.00
2023-04-25T21:34:23.949Z,100.00
2023-04-25T21:36:51.419Z,100.00
2023-04-25T21:39:19.817Z,100.00
2023-04-25T21:41:48.227Z,100.00
2023-04-25T21:44:15.776Z,100.00
2023-04-25T21:46:44.653Z,100.00
2023-04-25T21:49:13.135Z,100.00
2023-04-25T21:51:40.748Z,100.00
2023-04-25T21:54:08.263Z,100.00
2023-04-25T21:56:36.082Z,100.00
2023-04-25T21:59:03.709Z,100.00
2023-04-25T22:01:31.331Z,100.00
2023-04-25T22:04:00.298Z,100.00
2023-04-25T22:06:28.474Z,100.00
2023-04-25T22:08:55.941Z,100.00
2023-04-25T22:11:24.335Z,100.00
2023-04-25T22:13:52.078Z,100.00
2023-04-25T22:16:20.308Z,100.00
2023-04-25T22:18:48.344Z,100.00
2023-04-25T22:21:17.861Z,100.00
2023-04-25T22:23:45.343Z,100.00
2023-04-25T22:26:30.987Z,100.00
2023-04-25T22:28:58.545Z,100.00
2023-04-25T22:31:26.065Z,100.00
2023-04-25T22:33:53.577Z,100.00
2023-04-25T22:36:23.973Z,100.00
2023-04-25T22:38:52.576Z,100.00
2023-04-25T22:41:20.528Z,100.00
2023-04-25T22:43:48.743Z,100.00
2023-04-25T22:46:17.119Z,100.00
2023-04-25T22:48:44.762Z,100.00
2023-04-25T22:51:12.623Z,100.00
2023-04-25T22:53:42.712Z,100.00
2023-04-25T22:56:11.283Z,100.00
2023-04-25T22:58:39.568Z,100.00
2023-04-25T23:01:08.460Z,97.96
2023-04-25T23:03:36.607Z,90.25
2023-04-25T23:06:05.318Z,85.99
2023-04-25T23:08:33.172Z,86.40
2023-04-25T23:11:06.637Z,94.34
2023-04-25T23:13:36.459Z,100.00
2023-04-25T23:16:08.671Z,100.00
2023-04-25T23:18:36.529Z,100.00
2023-04-25T23:21:04.258Z,93.51
2023-04-25T23:23:31.742Z,90.35
2023-04-25T23:25:59.214Z,88.91
2023-04-25T23:28:28.004Z,91.05
2023-04-25T23:30:55.796Z,93.05
2023-04-25T23:33:23.301Z,96.64
2023-04-25T23:35:50.932Z,98.64
2023-04-25T23:38:18.386Z,100.00
2023-04-25T23:40:45.946Z,100.00
2023-04-25T23:43:13.431Z,100.00
2023-04-25T23:45:43.804Z,100.00
2023-04-25T23:48:11.604Z,100.00
2023-04-25T23:50:39.086Z,100.00
2023-04-25T23:53:06.588Z,100.00
2023-04-25T23:55:34.130Z,100.00
2023-04-25T23:58:01.614Z,100.00
